createdAt,value
2023-02-28T00:01:14.532Z,7.53
2023-02-28T00:03:41.336Z,12.43
2023-02-28T00:06:10.415Z,14.90
2023-02-28T00:08:38.548Z,18.30
2023-02-28T00:11:08.140Z,13.33
2023-02-28T00:13:40.837Z,10.83
2023-02-28T00:16:14.137Z,8.83
2023-02-28T00:18:41.834Z,8.20
2023-02-28T00:21:09.041Z,8.60
2023-02-28T00:23:36.134Z,10.50
2023-02-28T00:26:03.661Z,5.20
2023-02-28T00:28:30.493Z,5.30
2023-02-28T00:30:58.584Z,6.30
2023-02-28T00:33:25.385Z,7.43
2023-02-28T00:35:52.113Z,5.63
2023-02-28T00:38:18.903Z,9.20
2023-02-28T00:40:45.718Z,8.47
2023-02-28T00:43:12.360Z,8.47
2023-02-28T00:45:39.010Z,8.17
2023-02-28T00:48:05.815Z,9.43
2023-02-28T00:50:32.588Z,9.10
2023-02-28T00:52:59.244Z,5.77
2023-02-28T00:55:25.899Z,7.77
2023-02-28T00:57:52.545Z,5.73
2023-02-28T01:00:19.521Z,7.83
2023-02-28T01:02:46.181Z,9.23
2023-02-28T01:05:12.812Z,6.83
2023-02-28T01:07:39.487Z,6.90
2023-02-28T01:10:06.581Z,6.07
2023-02-28T01:12:33.263Z,10.23
2023-02-28T01:14:59.984Z,8.47
2023-02-28T01:17:27.437Z,7.27
2023-02-28T01:19:56.318Z,8.73
2023-02-28T01:22:23.229Z,5.90
2023-02-28T01:24:49.858Z,6.83
2023-02-28T01:27:16.513Z,9.93
2023-02-28T01:29:43.235Z,6.23
2023-02-28T01:32:09.939Z,8.17
2023-02-28T01:34:36.735Z,11.03
2023-02-28T01:37:04.420Z,7.63
2023-02-28T01:39:31.416Z,9.43
2023-02-28T01:41:58.059Z,6.30
2023-02-28T01:44:58.591Z,8.17
2023-02-28T01:47:29.643Z,7.17
2023-02-28T01:49:56.779Z,7.67
2023-02-28T01:52:25.914Z,6.07
2023-02-28T01:54:56.452Z,5.70
2023-02-28T01:57:32.146Z,5.87
2023-02-28T02:00:05.565Z,5.57
2023-02-28T02:02:32.397Z,5.77
2023-02-28T02:05:07.442Z,8.47
2023-02-28T02:07:38.756Z,7.80
2023-02-28T02:10:22.885Z,7.03
2023-02-28T02:13:13.561Z,8.50
2023-02-28T02:16:14.275Z,6.87
2023-02-28T02:19:07.177Z,9.40
2023-02-28T02:22:11.344Z,7.23
2023-02-28T02:25:02.630Z,7.47
2023-02-28T02:27:53.823Z,8.87
2023-02-28T02:30:42.046Z,11.27
2023-02-28T02:33:25.232Z,8.50
2023-02-28T02:35:57.676Z,9.30
2023-02-28T02:38:43.485Z,9.43
2023-02-28T02:41:21.177Z,7.63
2023-02-28T02:43:54.032Z,7.43
2023-02-28T02:46:44.775Z,12.40
2023-02-28T02:49:19.845Z,6.30
2023-02-28T02:51:48.837Z,7.77
2023-02-28T02:54:29.648Z,7.27
2023-02-28T02:57:00.310Z,9.30
2023-02-28T02:59:29.340Z,6.57
2023-02-28T03:02:00.675Z,7.07
2023-02-28T03:04:33.230Z,14.43
2023-02-28T03:06:59.960Z,8.83
2023-02-28T03:09:27.403Z,9.53
2023-02-28T03:11:57.333Z,9.37
2023-02-28T03:14:28.059Z,8.83
2023-02-28T03:17:00.957Z,8.27
2023-02-28T03:19:42.536Z,5.37
2023-02-28T03:22:52.059Z,8.10
2023-02-28T03:25:51.296Z,6.43
2023-02-28T03:28:57.908Z,8.33
2023-02-28T03:31:34.017Z,9.30
2023-02-28T03:34:11.127Z,8.90
2023-02-28T03:36:44.795Z,8.77
2023-02-28T03:39:20.225Z,9.00
2023-02-28T03:42:01.737Z,7.77
2023-02-28T03:44:41.985Z,9.07
2023-02-28T03:47:15.756Z,11.67
2023-02-28T03:49:51.970Z,8.60
2023-02-28T03:52:20.838Z,8.73
2023-02-28T03:54:53.315Z,6.40
2023-02-28T03:57:59.413Z,6.70
2023-02-28T04:00:33.787Z,8.00
2023-02-28T04:03:00.672Z,9.67
2023-02-28T04:05:28.560Z,9.30
2023-02-28T04:07:55.233Z,9.13
2023-02-28T04:10:22.221Z,9.53
2023-02-28T04:12:48.995Z,10.97
2023-02-28T04:15:15.920Z,6.70
2023-02-28T04:17:42.648Z,8.13
2023-02-28T04:20:12.639Z,7.57
2023-02-28T04:22:39.346Z,9.63
2023-02-28T04:25:06.837Z,10.00
2023-02-28T04:27:33.830Z,10.13
2023-02-28T04:30:00.614Z,9.73
2023-02-28T04:32:27.384Z,8.60
2023-02-28T04:34:54.126Z,7.20
2023-02-28T04:37:21.430Z,7.77
2023-02-28T04:39:48.102Z,7.07
2023-02-28T04:42:15.868Z,6.87
2023-02-28T04:44:42.585Z,7.40
2023-02-28T04:47:09.352Z,8.03
2023-02-28T04:49:36.228Z,9.30
2023-02-28T04:52:03.842Z,6.60
2023-02-28T04:54:30.845Z,7.23
2023-02-28T04:56:58.393Z,7.73
2023-02-28T04:59:25.074Z,8.97
2023-02-28T05:01:51.822Z,8.13
2023-02-28T05:04:18.584Z,11.60
2023-02-28T05:06:45.421Z,15.73
2023-02-28T05:09:13.495Z,18.90
2023-02-28T05:11:41.076Z,16.43
2023-02-28T05:14:12.115Z,19.37
2023-02-28T05:16:38.918Z,23.03
2023-02-28T05:19:05.733Z,16.30
2023-02-28T05:21:35.197Z,15.10
2023-02-28T05:24:08.839Z,12.27
2023-02-28T05:26:37.739Z,14.37
2023-02-28T05:29:04.441Z,9.20
2023-02-28T05:31:31.534Z,13.73
2023-02-28T05:33:58.509Z,10.40
2023-02-28T05:36:25.482Z,10.00
2023-02-28T05:38:52.863Z,9.37
2023-02-28T05:41:20.871Z,8.90
2023-02-28T05:43:48.640Z,6.97
2023-02-28T05:46:15.617Z,7.23
2023-02-28T05:48:43.593Z,8.53
2023-02-28T05:51:10.470Z,11.07
2023-02-28T05:53:37.798Z,9.17
2023-02-28T05:56:05.141Z,10.63
2023-02-28T05:58:32.256Z,7.60
2023-02-28T06:01:00.304Z,6.37
2023-02-28T06:03:27.217Z,9.13
2023-02-28T06:05:54.235Z,6.07
2023-02-28T06:08:21.252Z,5.87
2023-02-28T06:10:47.953Z,11.43
2023-02-28T06:13:15.401Z,7.53
2023-02-28T06:15:42.437Z,7.33
2023-02-28T06:18:09.177Z,5.53
2023-02-28T06:20:37.154Z,6.50
2023-02-28T06:23:04.073Z,8.13
2023-02-28T06:25:30.989Z,8.87
2023-02-28T06:27:57.860Z,9.13
2023-02-28T06:30:27.946Z,6.83
2023-02-28T06:32:55.714Z,7.47
2023-02-28T06:35:22.835Z,7.83
2023-02-28T06:37:49.565Z,7.80
2023-02-28T06:40:16.378Z,7.57
2023-02-28T06:42:43.278Z,8.73
2023-02-28T06:45:11.613Z,9.80
2023-02-28T06:47:41.170Z,11.30
2023-02-28T06:50:12.877Z,7.20
2023-02-28T06:52:39.971Z,7.17
2023-02-28T06:55:08.130Z,6.57
2023-02-28T06:57:36.677Z,8.37
2023-02-28T07:00:08.569Z,14.00
2023-02-28T07:02:37.125Z,9.63
2023-02-28T07:05:04.375Z,7.23
2023-02-28T07:07:31.585Z,8.07
2023-02-28T07:09:58.263Z,11.07
2023-02-28T07:12:25.004Z,9.37
2023-02-28T07:14:51.956Z,9.17
2023-02-28T07:17:18.633Z,11.20
2023-02-28T07:19:45.299Z,12.80
2023-02-28T07:22:12.956Z,9.37
2023-02-28T07:24:40.346Z,9.87
2023-02-28T07:27:07.463Z,12.63
2023-02-28T07:29:34.168Z,13.33
2023-02-28T07:32:00.878Z,11.27
2023-02-28T07:34:27.637Z,16.83
2023-02-28T07:36:55.359Z,32.70
2023-02-28T07:39:23.364Z,25.00
2023-02-28T07:41:50.046Z,19.43
2023-02-28T07:44:16.956Z,23.10
2023-02-28T07:46:43.690Z,25.83
2023-02-28T07:49:10.434Z,55.80
2023-02-28T07:51:37.212Z,62.80
2023-02-28T07:54:04.265Z,67.83
2023-02-28T07:56:31.339Z,87.77
2023-02-28T07:58:58.270Z,88.87
2023-02-28T08:01:25.063Z,95.13
2023-02-28T08:03:51.812Z,79.67
2023-02-28T08:06:22.146Z,89.70
2023-02-28T08:08:49.623Z,75.87
2023-02-28T08:11:17.720Z,79.70
2023-02-28T08:13:45.242Z,64.73
2023-02-28T08:16:16.463Z,27.57
2023-02-28T08:18:43.225Z,43.83
2023-02-28T08:21:10.950Z,30.93
2023-02-28T08:23:38.113Z,27.83
2023-02-28T08:26:05.273Z,32.67
2023-02-28T08:28:32.655Z,18.97
2023-02-28T08:31:00.106Z,13.97
2023-02-28T08:33:28.058Z,16.90
2023-02-28T08:35:58.099Z,7.03
2023-02-28T08:38:25.494Z,7.17
2023-02-28T08:40:59.811Z,5.70
2023-02-28T08:43:26.729Z,4.23
2023-02-28T08:45:55.135Z,3.33
2023-02-28T08:48:21.838Z,4.17
2023-02-28T08:51:07.540Z,2.97
2023-02-28T08:53:35.414Z,2.93
2023-02-28T08:56:13.776Z,3.93
2023-02-28T08:58:41.265Z,3.33
2023-02-28T09:01:15.804Z,6.30
2023-02-28T09:03:43.906Z,4.20
2023-02-28T09:06:12.456Z,2.63
2023-02-28T09:08:40.118Z,2.47
2023-02-28T09:11:07.862Z,3.07
2023-02-28T09:13:34.682Z,2.53
2023-02-28T09:16:03.011Z,2.50
2023-02-28T09:18:30.273Z,4.10
2023-02-28T09:20:57.408Z,3.37
2023-02-28T09:23:24.380Z,3.43
2023-02-28T09:25:53.504Z,3.30
2023-02-28T09:28:20.933Z,5.70
2023-02-28T09:30:53.638Z,2.10
2023-02-28T09:33:22.024Z,3.07
2023-02-28T09:35:49.855Z,2.10
2023-02-28T09:38:17.654Z,3.63
2023-02-28T09:40:54.922Z,5.70
2023-02-28T09:43:24.779Z,1.87
2023-02-28T09:46:01.741Z,1.73
2023-02-28T09:48:43.247Z,1.50
2023-02-28T09:51:25.690Z,2.77
2023-02-28T09:54:00.038Z,2.87
2023-02-28T09:56:42.277Z,2.20
2023-02-28T09:59:20.711Z,1.97
2023-02-28T10:02:06.174Z,1.60
2023-02-28T10:04:52.664Z,1.40
2023-02-28T10:07:41.360Z,2.23
2023-02-28T10:10:34.527Z,4.87
2023-02-28T10:13:05.140Z,1.93
2023-02-28T10:15:33.891Z,13.23
2023-02-28T10:18:17.319Z,2.97
2023-02-28T10:20:44.541Z,1.53
2023-02-28T10:23:22.086Z,1.90
2023-02-28T10:25:59.615Z,2.30
2023-02-28T10:28:27.822Z,1.90
2023-02-28T10:30:55.784Z,2.73
2023-02-28T10:33:35.203Z,1.67
2023-02-28T10:36:03.495Z,1.97
2023-02-28T10:38:41.045Z,5.50
2023-02-28T10:41:17.388Z,2.00
2023-02-28T10:43:48.341Z,2.23
2023-02-28T10:46:26.881Z,1.70
2023-02-28T10:49:02.594Z,1.77
2023-02-28T10:51:38.927Z,2.17
2023-02-28T10:54:06.619Z,1.63
2023-02-28T10:56:34.452Z,1.77
2023-02-28T10:59:04.778Z,2.43
2023-02-28T11:01:31.692Z,2.43
2023-02-28T11:03:59.540Z,1.97
2023-02-28T11:06:32.497Z,1.60
2023-02-28T11:09:03.562Z,7.40
2023-02-28T11:11:41.754Z,2.30
2023-02-28T11:14:39.137Z,2.87
2023-02-28T11:17:21.349Z,3.03
2023-02-28T11:19:51.880Z,3.83
2023-02-28T11:22:29.685Z,7.97
2023-02-28T11:25:00.450Z,1.67
2023-02-28T11:27:46.033Z,1.97
2023-02-28T11:30:26.079Z,2.63
2023-02-28T11:32:52.949Z,1.93
2023-02-28T11:35:35.625Z,2.53
2023-02-28T11:38:03.438Z,2.90
2023-02-28T11:40:40.138Z,2.33
2023-02-28T11:43:37.133Z,1.97
2023-02-28T11:46:22.238Z,1.40
2023-02-28T11:49:14.460Z,1.83
2023-02-28T11:51:54.176Z,2.17
2023-02-28T11:54:59.241Z,2.27
2023-02-28T11:57:51.386Z,1.63
2023-02-28T12:00:36.882Z,2.40
2023-02-28T12:03:25.565Z,2.87
2023-02-28T12:06:21.205Z,1.93
2023-02-28T12:09:26.739Z,2.23
2023-02-28T12:12:08.180Z,1.90
2023-02-28T12:14:53.724Z,4.03
2023-02-28T12:17:44.115Z,2.20
2023-02-28T12:20:36.716Z,3.00
2023-02-28T12:23:20.534Z,2.13
2023-02-28T12:26:10.506Z,2.30
2023-02-28T12:28:47.529Z,2.03
2023-02-28T12:31:20.667Z,2.33
2023-02-28T12:33:52.556Z,3.47
2023-02-28T12:36:23.001Z,2.67
2023-02-28T12:39:04.895Z,2.30
2023-02-28T12:41:52.417Z,2.80
2023-02-28T12:44:33.852Z,2.30
2023-02-28T12:47:05.704Z,3.70
2023-02-28T12:49:46.017Z,3.03
2023-02-28T12:52:18.040Z,2.20
2023-02-28T12:55:01.325Z,3.47
2023-02-28T12:57:53.218Z,3.50
2023-02-28T13:00:24.042Z,2.97
2023-02-28T13:03:13.975Z,3.63
2023-02-28T13:06:18.325Z,2.27
2023-02-28T13:09:10.270Z,3.97
2023-02-28T13:11:45.730Z,2.17
2023-02-28T13:14:35.728Z,2.17
2023-02-28T13:17:04.625Z,2.50
2023-02-28T13:19:44.584Z,2.17
2023-02-28T13:22:27.032Z,2.37
2023-02-28T13:24:58.207Z,2.93
2023-02-28T13:27:32.787Z,2.30
2023-02-28T13:30:00.345Z,2.67
2023-02-28T13:32:30.380Z,2.20
2023-02-28T13:34:57.008Z,2.50
2023-02-28T13:37:24.040Z,2.30
2023-02-28T13:40:04.062Z,9.70
2023-02-28T13:42:48.267Z,3.67
2023-02-28T13:45:22.786Z,4.90
2023-02-28T13:48:17.343Z,3.40
2023-02-28T13:50:45.064Z,2.73
2023-02-28T13:53:14.538Z,3.80
2023-02-28T13:55:54.141Z,2.80
2023-02-28T13:58:34.881Z,2.60
2023-02-28T14:01:13.477Z,4.40
2023-02-28T14:03:54.906Z,5.90
2023-02-28T14:06:35.047Z,2.30
2023-02-28T14:09:25.465Z,3.90
2023-02-28T14:11:52.790Z,2.97
2023-02-28T14:14:37.685Z,4.17
2023-02-28T14:17:16.042Z,4.07
2023-02-28T14:19:49.696Z,3.23
2023-02-28T14:22:34.232Z,2.63
2023-02-28T14:25:16.243Z,2.40
2023-02-28T14:27:57.534Z,3.53
2023-02-28T14:30:43.010Z,4.60
2023-02-28T14:33:30.801Z,3.10
2023-02-28T14:36:34.324Z,2.47
2023-02-28T14:39:06.704Z,3.73
2023-02-28T14:41:37.672Z,3.27
2023-02-28T14:44:14.225Z,2.63
2023-02-28T14:46:42.746Z,2.87
2023-02-28T14:49:33.291Z,4.03
2023-02-28T14:52:22.363Z,6.20
2023-02-28T14:54:57.859Z,4.57
2023-02-28T14:57:30.878Z,3.30
2023-02-28T15:00:17.621Z,3.90
2023-02-28T15:02:44.832Z,5.07
2023-02-28T15:05:23.422Z,3.50
2023-02-28T15:08:02.875Z,3.40
2023-02-28T15:10:29.921Z,2.97
2023-02-28T15:13:00.401Z,3.17
2023-02-28T15:15:51.648Z,3.27
2023-02-28T15:18:50.442Z,3.40
2023-02-28T15:21:33.498Z,2.40
2023-02-28T15:24:16.241Z,5.53
2023-02-28T15:26:54.179Z,3.20
2023-02-28T15:29:23.714Z,3.03
2023-02-28T15:31:58.006Z,3.53
2023-02-28T15:34:43.750Z,2.50
2023-02-28T15:37:33.801Z,2.37
2023-02-28T15:40:24.777Z,3.67
2023-02-28T15:43:04.596Z,3.33
2023-02-28T15:45:45.634Z,4.87
2023-02-28T15:48:24.968Z,2.53
2023-02-28T15:51:20.812Z,3.20
2023-02-28T15:54:03.810Z,2.93
2023-02-28T15:56:45.445Z,3.33
2023-02-28T15:59:23.660Z,3.10
2023-02-28T16:02:10.495Z,3.80
2023-02-28T16:04:38.388Z,2.80
2023-02-28T16:07:07.171Z,3.33
2023-02-28T16:09:35.327Z,3.20
2023-02-28T16:12:04.112Z,3.83
2023-02-28T16:14:31.995Z,2.53
2023-02-28T16:17:05.522Z,3.03
2023-02-28T16:19:34.617Z,3.43
2023-02-28T16:22:02.065Z,3.70
2023-02-28T16:24:28.735Z,4.00
2023-02-28T16:26:58.044Z,3.50
2023-02-28T16:29:31.994Z,2.60
2023-02-28T16:31:59.636Z,2.80
2023-02-28T16:34:26.371Z,3.47
2023-02-28T16:36:53.035Z,3.77
2023-02-28T16:39:21.700Z,7.50
2023-02-28T16:41:49.833Z,4.80
2023-02-28T16:44:29.787Z,3.47
2023-02-28T16:46:56.649Z,4.03
2023-02-28T16:49:23.443Z,2.90
2023-02-28T16:51:50.177Z,4.20
2023-02-28T16:54:16.860Z,4.63
2023-02-28T16:56:47.474Z,3.30
2023-02-28T16:59:22.673Z,4.80
2023-02-28T17:01:50.478Z,3.33
2023-02-28T17:04:17.361Z,5.07
2023-02-28T17:06:44.421Z,8.10
2023-02-28T17:09:19.896Z,4.00
2023-02-28T17:11:47.629Z,4.20
2023-02-28T17:14:15.069Z,3.50
2023-02-28T17:16:43.121Z,3.40
2023-02-28T17:19:15.471Z,3.73
2023-02-28T17:21:43.182Z,7.30
2023-02-28T17:24:28.920Z,4.70
2023-02-28T17:26:57.178Z,4.97
2023-02-28T17:29:25.294Z,3.67
2023-02-28T17:31:53.323Z,4.43
2023-02-28T17:34:20.679Z,6.97
2023-02-28T17:36:49.871Z,6.90
2023-02-28T17:39:25.111Z,9.27
2023-02-28T17:41:56.032Z,5.53
2023-02-28T17:44:24.764Z,4.47
2023-02-28T17:46:52.719Z,4.43
2023-02-28T17:49:19.705Z,5.97
2023-02-28T17:51:47.321Z,4.60
2023-02-28T17:54:15.005Z,6.13
2023-02-28T17:56:43.888Z,5.73
2023-02-28T17:59:12.443Z,4.83
2023-02-28T18:01:39.800Z,10.53
2023-02-28T18:04:06.486Z,7.97
2023-02-28T18:06:47.412Z,8.67
2023-02-28T18:09:16.466Z,6.00
2023-02-28T18:11:45.981Z,5.73
2023-02-28T18:14:12.934Z,6.20
2023-02-28T18:16:39.839Z,5.20
2023-02-28T18:19:07.138Z,5.27
2023-02-28T18:21:33.922Z,19.10
2023-02-28T18:24:00.623Z,12.50
2023-02-28T18:26:27.408Z,9.70
2023-02-28T18:28:54.349Z,10.00
2023-02-28T18:31:21.174Z,7.93
2023-02-28T18:33:52.262Z,5.70
2023-02-28T18:36:20.863Z,5.47
2023-02-28T18:38:48.559Z,4.17
2023-02-28T18:41:15.250Z,10.57
2023-02-28T18:43:42.248Z,7.97
2023-02-28T18:46:11.939Z,7.97
2023-02-28T18:48:39.790Z,11.53
2023-02-28T18:51:11.453Z,12.80
2023-02-28T18:53:40.094Z,15.13
2023-02-28T18:56:08.811Z,13.83
2023-02-28T18:58:35.768Z,11.93
2023-02-28T19:01:04.528Z,10.33
2023-02-28T19:03:31.357Z,8.67
2023-02-28T19:06:00.099Z,8.07
2023-02-28T19:08:27.201Z,6.67
2023-02-28T19:10:53.880Z,8.93
2023-02-28T19:13:21.418Z,5.67
2023-02-28T19:15:48.401Z,5.17
2023-02-28T19:18:15.480Z,7.43
2023-02-28T19:20:42.207Z,5.13
2023-02-28T19:23:11.679Z,5.47
2023-02-28T19:25:42.305Z,6.23
2023-02-28T19:28:09.066Z,6.00
2023-02-28T19:30:35.749Z,5.33
2023-02-28T19:33:02.546Z,11.87
2023-02-28T19:35:29.580Z,7.30
2023-02-28T19:37:58.272Z,6.53
2023-02-28T19:40:25.564Z,14.20
2023-02-28T19:42:52.586Z,10.87
2023-02-28T19:45:19.330Z,9.67
2023-02-28T19:47:46.069Z,8.37
2023-02-28T19:50:12.822Z,8.20
2023-02-28T19:55:06.564Z,9.13
2023-02-28T19:57:33.277Z,6.20
2023-02-28T20:00:00.279Z,11.90
2023-02-28T20:02:27.010Z,5.80
2023-02-28T20:04:54.914Z,5.57
2023-02-28T20:07:21.723Z,12.23
2023-02-28T20:09:48.864Z,12.27
2023-02-28T20:12:24.230Z,8.90
2023-02-28T20:14:51.546Z,5.27
2023-02-28T20:17:18.744Z,7.73
2023-02-28T20:19:46.247Z,8.57
2023-02-28T20:22:12.913Z,6.47
2023-02-28T20:24:39.624Z,6.37
2023-02-28T20:27:06.317Z,7.07
2023-02-28T20:29:34.765Z,7.13
2023-02-28T20:32:02.117Z,9.57
2023-02-28T20:34:29.006Z,14.97
2023-02-28T20:36:56.771Z,22.60
2023-02-28T20:39:23.862Z,26.07
2023-02-28T20:41:50.817Z,16.23
2023-02-28T20:44:17.622Z,13.00
2023-02-28T20:46:44.595Z,15.73
2023-02-28T20:49:11.531Z,8.27
2023-02-28T20:51:40.129Z,9.60
2023-02-28T20:54:08.063Z,8.70
2023-02-28T20:56:34.879Z,6.63
2023-02-28T20:59:01.633Z,7.70
2023-02-28T21:01:29.479Z,5.90
2023-02-28T21:03:59.058Z,7.20
2023-02-28T21:06:31.472Z,8.37
2023-02-28T21:08:58.894Z,8.13
2023-02-28T21:11:27.878Z,6.03
2023-02-28T21:13:55.680Z,6.93
2023-02-28T21:16:25.450Z,5.07
2023-02-28T21:18:53.157Z,6.60
2023-02-28T21:21:24.686Z,7.60
2023-02-28T21:23:52.620Z,6.53
2023-02-28T21:26:22.516Z,7.50
2023-02-28T21:28:54.676Z,8.13
2023-02-28T21:31:23.289Z,6.00
2023-02-28T21:33:50.205Z,7.27
2023-02-28T21:36:19.787Z,7.23
2023-02-28T21:38:48.256Z,6.53
2023-02-28T21:41:18.592Z,7.87
2023-02-28T21:43:46.271Z,5.53
2023-02-28T21:46:16.059Z,10.83
2023-02-28T21:48:43.593Z,6.30
2023-02-28T21:51:16.116Z,6.27
2023-02-28T21:53:43.877Z,7.87
2023-02-28T21:56:19.902Z,7.37
2023-02-28T21:58:48.025Z,8.40
2023-02-28T22:01:22.918Z,9.33
2023-02-28T22:03:50.321Z,11.37
2023-02-28T22:06:22.693Z,14.43
2023-02-28T22:08:54.792Z,8.80
2023-02-28T22:11:22.592Z,17.00
2023-02-28T22:13:50.516Z,16.23
2023-02-28T22:16:20.230Z,18.63
2023-02-28T22:18:47.115Z,19.87
2023-02-28T22:21:16.123Z,24.37
2023-02-28T22:23:44.445Z,19.30
2023-02-28T22:26:13.505Z,15.50
2023-02-28T22:28:40.403Z,9.23
2023-02-28T22:31:22.754Z,10.63
2023-02-28T22:33:50.765Z,8.63
2023-02-28T22:36:19.454Z,9.77
2023-02-28T22:38:47.570Z,14.50
2023-02-28T22:41:15.070Z,20.50
2023-02-28T22:43:43.607Z,16.33
2023-02-28T22:46:12.586Z,11.43
2023-02-28T22:48:39.890Z,9.67
2023-02-28T22:51:14.755Z,12.77
2023-02-28T22:53:43.164Z,8.07
2023-02-28T22:56:11.316Z,7.37
2023-02-28T22:58:38.102Z,7.63
2023-02-28T23:01:07.786Z,10.07
2023-02-28T23:03:34.679Z,7.67
2023-02-28T23:06:02.357Z,6.83
2023-02-28T23:08:29.030Z,10.70
2023-02-28T23:10:55.808Z,8.13
2023-02-28T23:13:22.550Z,7.70
2023-02-28T23:15:49.606Z,7.23
2023-02-28T23:18:16.554Z,11.23
2023-02-28T23:20:43.307Z,7.73
2023-02-28T23:23:10.201Z,6.97
2023-02-28T23:25:40.814Z,7.13
2023-02-28T23:28:10.194Z,9.17
2023-02-28T23:30:38.730Z,8.27
2023-02-28T23:33:06.983Z,10.43
2023-02-28T23:35:34.744Z,7.77
2023-02-28T23:38:01.445Z,7.43
2023-02-28T23:40:28.712Z,7.10
2023-02-28T23:42:55.355Z,7.90
2023-02-28T23:45:22.120Z,7.10
2023-02-28T23:47:48.846Z,8.30
2023-02-28T23:50:15.728Z,6.47
2023-02-28T23:52:42.520Z,8.07
2023-02-28T23:55:09.920Z,9.07
2023-02-28T23:57:36.637Z,8.93
